»·PEaware :: SWA1763 KPHX-KELP

SWA1763 :: KPHX-KELP

FLIGHT INFORMATION

Flight Status: Arrived
Operator:
Southwest Airlines
More flights by this operator :: More flights under this callsign
Pilot: Anonymous 34646 (34646)
Aircraft: BOEING 737-700
(B737)
More flights by this aircraft type
Origin: KPHX Phoenix Sky Harbor Intl
United States
Destination: KELP El Paso Intl
United States
More flights between these airports :: More routes between these airports
Route: ECLPS1 PHASE TEEES MOLLY5
File this flight plan on PilotEdge
Remarks: RMK / SIMBRIEF
Altitude:
(Current/Filed)
35,000ft
Speed:
(Current/Filed)
456kts
Departed: 25-Apr-21 09:16 PM
Arrived: 25-Apr-21 10:08 PM
Distance/Time
Traveled:
300nm/0:51
Distance/Time
To Go:
Arrived

Flight Plot

Page will automatically refresh every two minutes.

Flight plan parsing failed; only flown route is shown


Map Options




Map Legend


Flown Route
Filed Route
Departure Airport
Arrival Airport
Navaid (VOR, NDB)
Fix

Horizontal Profiles

Position Reports

Time Latitude Longitude Heading Altitude Ground
Speed
25-Apr-21 20:59 33.433384 -111.994623 33 1143ft 0kts
25-Apr-21 21:00 33.433384 -111.994623 33 1143ft 0kts
25-Apr-21 21:01 33.433384 -111.994623 33 1143ft 0kts
25-Apr-21 21:02 33.433384 -111.994623 33 1143ft 0kts
25-Apr-21 21:03 33.433384 -111.994623 33 1143ft 0kts
25-Apr-21 21:04 33.433384 -111.994623 33 1143ft 0kts
25-Apr-21 21:05 33.433384 -111.994623 33 1143ft 0kts
25-Apr-21 21:06 33.433384 -111.994623 33 1143ft 0kts
25-Apr-21 21:07 33.433111 -111.994838 33 1143ft 2kts
25-Apr-21 21:08 33.432813 -111.995071 32 1143ft 0kts
25-Apr-21 21:09 33.432813 -111.995071 32 1143ft 0kts
25-Apr-21 21:10 33.432813 -111.995071 32 1143ft 0kts
25-Apr-21 21:11 33.432848 -111.994968 89 1143ft 1kts
25-Apr-21 21:12 33.432737 -111.993717 136 1143ft 2kts
25-Apr-21 21:13 33.432116 -111.993581 179 1143ft 0kts
25-Apr-21 21:14 33.431741 -111.993579 179 1143ft 7kts
25-Apr-21 21:15 33.431036 -112.006435 269 1143ft 137kts
25-Apr-21 21:16 33.429277 -112.061912 253 3559ft 191kts
25-Apr-21 21:17 33.409973 -112.129205 248 6613ft 216kts
25-Apr-21 21:18 33.378523 -112.189679 196 9434ft 240kts
25-Apr-21 21:19 33.308278 -112.158410 163 11490ft 306kts
25-Apr-21 21:20 33.238813 -112.086033 123 13944ft 358kts
25-Apr-21 21:21 33.206550 -111.968192 112 16602ft 384kts
25-Apr-21 21:23 33.174228 -111.843645 113 18994ft 403kts
25-Apr-21 21:24 33.140446 -111.713460 114 21185ft 421kts
25-Apr-21 21:25 33.104240 -111.577405 114 23110ft 438kts
25-Apr-21 21:26 33.062626 -111.438802 124 24869ft 444kts
25-Apr-21 21:27 32.996411 -111.314721 132 26609ft 446kts
25-Apr-21 21:28 32.928544 -111.192327 133 28733ft 442kts
25-Apr-21 21:29 32.861382 -111.070347 133 30412ft 447kts
25-Apr-21 21:30 32.791894 -110.943801 134 31552ft 460kts
25-Apr-21 21:31 32.719664 -110.813845 134 32474ft 473kts
25-Apr-21 21:32 32.650354 -110.681517 125 33976ft 483kts
25-Apr-21 21:33 32.610091 -110.525591 114 34910ft 503kts
25-Apr-21 21:34 32.574490 -110.364479 114 34909ft 502kts
25-Apr-21 21:35 32.539085 -110.204532 114 34887ft 502kts
25-Apr-21 21:36 32.503471 -110.044072 114 34885ft 502kts
25-Apr-21 21:37 32.467206 -109.884372 114 34889ft 504kts
25-Apr-21 21:38 32.432617 -109.723409 109 34898ft 507kts
25-Apr-21 21:39 32.412445 -109.557839 107 34907ft 509kts
25-Apr-21 21:40 32.391803 -109.391932 107 34920ft 510kts
25-Apr-21 21:41 32.370214 -109.226168 107 34933ft 510kts
25-Apr-21 21:42 32.351115 -109.059190 104 34950ft 514kts
25-Apr-21 21:43 32.334711 -108.890996 105 34968ft 514kts
25-Apr-21 21:44 32.317956 -108.723082 104 34984ft 516kts
25-Apr-21 21:45 32.301467 -108.554552 105 34606ft 517kts
25-Apr-21 21:46 32.284074 -108.386888 105 33275ft 508kts
25-Apr-21 21:46 32.269596 -108.248644 105 32165ft 504kts
25-Apr-21 21:48 32.247453 -108.053490 103 28953ft 503kts
25-Apr-21 21:49 32.228584 -107.890778 103 27697ft 500kts
25-Apr-21 21:50 32.209920 -107.730769 103 25425ft 480kts
25-Apr-21 21:51 32.191944 -107.577713 103 23240ft 464kts
25-Apr-21 21:51 32.177247 -107.453697 103 21471ft 452kts
25-Apr-21 21:52 32.160744 -107.309624 102 19417ft 428kts
25-Apr-21 21:54 32.142072 -107.153351 103 17239ft 401kts
25-Apr-21 21:55 32.126498 -107.025587 102 15427ft 388kts
25-Apr-21 21:56 32.104476 -106.902982 109 13651ft 376kts
25-Apr-21 21:57 32.077997 -106.785247 108 11922ft 366kts
25-Apr-21 21:57 32.055309 -106.691153 108 10753ft 339kts
25-Apr-21 21:58 32.031130 -106.592848 108 9795ft 280kts
25-Apr-21 21:59 32.010023 -106.507484 108 8844ft 273kts
25-Apr-21 22:00 31.988567 -106.420092 108 7597ft 275kts
25-Apr-21 22:01 31.968170 -106.338254 108 6992ft 240kts
25-Apr-21 22:02 31.944158 -106.274399 155 6196ft 197kts
25-Apr-21 22:03 31.894559 -106.272436 212 5397ft 169kts
25-Apr-21 22:04 31.863702 -106.312427 232 5184ft 162kts
25-Apr-21 22:05 31.835450 -106.352427 230 4390ft 157kts
25-Apr-21 22:06 31.811396 -106.386139 229 3966ft 70kts
25-Apr-21 22:07 31.804438 -106.392670 188 3966ft 17kts
25-Apr-21 22:08 31.801214 -106.394256 261 3966ft 7kts
25-Apr-21 22:09 31.800293 -106.394664 180 3966ft 0kts
25-Apr-21 22:10 31.800293 -106.394664 180 3966ft 0kts

Navigation Log

Ident Type
Flight plan parsing failed, navigation log unavailable